Time;durP1;ratioP1;P1;durP2;ratioP2;P2;SDS_P1;SDS_P2;PMS_P1;PMS_P2;Temp;Humidity;BMP_temperature;BMP_pressure;BME280_temperature;BME280_humidity;BME280_pressure;Samples;Min_cycle;Max_cycle;Signal;HPM_P1;HPM_P2
2023/03/29 00:01:50;;;;;;;2.33;2.20;;;;;;;3.79;55.27;99840.09;5074941;28;20275;-74
2023/03/29 00:04:18;;;;;;;2.30;2.20;;;;;;;3.69;55.58;99837.53;5074647;28;20261;-74
2023/03/29 00:06:46;;;;;;;9.33;2.30;;;;;;;3.66;55.98;99843.06;5074779;28;20211;-73
2023/03/29 00:09:13;;;;;;;2.40;2.30;;;;;;;3.76;55.90;99846.47;5073831;28;20192;-73
2023/03/29 00:11:40;;;;;;;2.87;2.60;;;;;;;3.73;55.59;99849.41;5074388;28;20446;-73
2023/03/29 00:14:07;;;;;;;3.17;2.10;;;;;;;3.66;56.39;99843.06;5074307;28;20442;-74
2023/03/29 00:16:35;;;;;;;3.20;2.90;;;;;;;3.71;56.28;99856.59;5074589;28;20192;-74
2023/03/29 00:19:01;;;;;;;2.40;2.30;;;;;;;3.74;55.78;99848.44;5063373;28;20193;-74
2023/03/29 00:21:28;;;;;;;2.37;2.27;;;;;;;3.81;55.87;99860.03;5068890;28;20262;-74
2023/03/29 00:23:56;;;;;;;3.13;2.40;;;;;;;3.83;55.74;99859.88;5074556;28;20192;-74
2023/03/29 00:26:22;;;;;;;2.30;2.20;;;;;;;3.85;54.91;99864.00;5073954;28;20482;-74
2023/03/29 00:28:49;;;;;;;2.63;2.53;;;;;;;3.80;54.69;99866.25;5073389;28;20191;-74
2023/03/29 00:31:18;;;;;;;2.87;2.03;;;;;;;3.83;54.44;99876.47;5072984;28;20200;-74
2023/03/29 00:33:46;;;;;;;3.23;2.47;;;;;;;3.71;55.15;99880.25;5074051;28;20733;-74
2023/03/29 00:36:13;;;;;;;3.03;2.93;;;;;;;3.77;55.10;99877.06;5074155;28;20196;-74
2023/03/29 00:38:40;;;;;;;2.87;2.47;;;;;;;3.75;55.44;99880.78;5072160;28;20203;-74
2023/03/29 00:41:08;;;;;;;2.80;2.70;;;;;;;3.56;55.69;99879.03;5073819;28;20283;-74
2023/03/29 00:43:53;;;;;;;2.93;2.73;;;;;;;3.64;55.51;99892.28;5074186;28;20195;-75
2023/03/29 00:46:20;;;;;;;2.87;2.77;;;;;;;3.50;56.52;99890.13;5069510;28;20470;-74
2023/03/29 00:48:49;;;;;;;3.13;2.93;;;;;;;3.50;56.18;99884.03;5054093;28;20622;-74
2023/03/29 00:51:19;;;;;;;3.10;3.00;;;;;;;3.50;56.96;99887.50;5053566;28;20247;-75
2023/03/29 00:53:48;;;;;;;3.33;3.23;;;;;;;3.34;57.34;99882.00;5053846;28;20880;-74
2023/03/29 00:56:20;;;;;;;3.07;2.90;;;;;;;3.38;57.72;99891.25;5056581;28;20508;-75
2023/03/29 00:58:51;;;;;;;3.90;2.57;;;;;;;3.42;57.82;99887.38;5074032;28;20188;-75
2023/03/29 01:01:27;;;;;;;2.77;2.67;;;;;;;3.39;57.38;99890.28;5073750;28;20499;-73
2023/03/29 01:04:01;;;;;;;3.40;3.20;;;;;;;3.33;56.80;99893.47;5073946;28;20491;-73
2023/03/29 01:06:32;;;;;;;2.80;2.70;;;;;;;3.40;55.80;99899.81;5072542;28;20522;-73
2023/03/29 01:09:02;;;;;;;2.30;2.30;;;;;;;3.46;55.63;99894.00;5073634;28;20434;-73
2023/03/29 01:11:32;;;;;;;2.50;2.40;;;;;;;3.38;55.98;99896.50;5073574;28;20464;-73
2023/03/29 01:14:02;;;;;;;3.47;3.17;;;;;;;3.40;55.86;99891.94;5073505;28;20434;-74
2023/03/29 01:16:31;;;;;;;2.53;2.43;;;;;;;3.44;56.01;99902.97;5072659;28;20203;-75
2023/03/29 01:19:01;;;;;;;2.90;2.70;;;;;;;3.52;56.38;99898.66;5073204;28;20969;-75
2023/03/29 01:21:33;;;;;;;4.23;3.03;;;;;;;3.50;56.49;99900.63;5073491;28;20446;-75
2023/03/29 01:24:16;;;;;;;2.87;2.67;;;;;;;3.35;56.03;99888.91;5060739;28;20450;-75
2023/03/29 01:26:54;;;;;;;3.07;2.97;;;;;;;3.35;56.17;99896.78;5071128;28;20223;-74
2023/03/29 01:29:27;;;;;;;3.67;3.47;;;;;;;3.32;55.49;99901.47;5073419;28;20294;-74
2023/03/29 01:31:59;;;;;;;3.20;2.87;;;;;;;3.21;55.77;99899.00;5073025;28;20487;-75
2023/03/29 01:34:36;;;;;;;2.90;2.80;;;;;;;3.20;55.58;99895.56;5071864;28;20430;-76
2023/03/29 01:37:07;;;;;;;3.73;2.97;;;;;;;3.24;56.21;99904.81;5053146;28;20431;-75
2023/03/29 01:39:34;;;;;;;3.40;3.13;;;;;;;3.19;55.34;99901.75;5053207;28;20719;-74
2023/03/29 01:42:20;;;;;;;2.63;2.50;;;;;;;3.26;56.03;99892.38;5052256;28;21021;-75
2023/03/29 01:44:55;;;;;;;2.93;2.73;;;;;;;3.25;56.02;99890.72;5066854;28;20445;-74
2023/03/29 01:47:30;;;;;;;3.27;3.17;;;;;;;3.34;56.57;99892.50;5072664;28;20184;-74
2023/03/29 01:50:06;;;;;;;3.50;3.30;;;;;;;3.31;56.39;99894.59;5073028;28;20429;-75
2023/03/29 01:52:38;;;;;;;3.20;3.10;;;;;;;3.41;55.70;99896.22;5059687;28;20438;-75
2023/03/29 01:55:11;;;;;;;5.43;2.93;;;;;;;3.36;54.70;99901.06;5052504;28;20439;-75
2023/03/29 01:57:41;;;;;;;2.73;2.60;;;;;;;3.54;54.53;99912.50;5052408;28;20481;-74
2023/03/29 02:00:15;;;;;;;2.97;2.87;;;;;;;3.64;53.56;99913.28;5052767;28;20434;-75
2023/03/29 02:02:44;;;;;;;3.30;3.20;;;;;;;3.53;53.41;99923.13;5065789;28;20461;-74
2023/03/29 02:05:13;;;;;;;2.87;2.73;;;;;;;3.56;53.94;99923.69;5072394;28;20539;-74
2023/03/29 02:07:41;;;;;;;3.00;2.80;;;;;;;3.49;53.80;99930.47;5071642;28;20195;-74
2023/03/29 02:10:11;;;;;;;4.33;3.73;;;;;;;3.34;54.35;99926.63;5072148;28;20690;-74
2023/03/29 02:12:38;;;;;;;2.90;2.63;;;;;;;3.39;54.28;99929.66;5058809;28;20967;-73
2023/03/29 02:15:06;;;;;;;3.67;3.47;;;;;;;3.28;55.81;99932.44;5052378;28;20973;-73
2023/03/29 02:17:34;;;;;;;5.50;3.93;;;;;;;3.13;56.59;99936.44;5052417;28;20442;-73
2023/03/29 02:20:13;;;;;;;3.53;3.23;;;;;;;3.05;57.05;99941.56;5057144;28;20492;-74
2023/03/29 02:22:47;;;;;;;3.13;2.93;;;;;;;3.15;57.38;99952.88;5052016;28;20447;-73
2023/03/29 02:25:16;;;;;;;2.83;2.73;;;;;;;3.00;57.83;99938.53;5057615;28;20485;-73
2023/03/29 02:27:43;;;;;;;3.50;3.20;;;;;;;2.97;59.18;99961.56;5066594;28;20467;-74
2023/03/29 02:30:13;;;;;;;3.03;2.93;;;;;;;3.12;58.04;99968.91;5052319;28;20447;-73
2023/03/29 02:32:49;;;;;;;3.37;3.20;;;;;;;3.08;57.97;99970.16;5052049;28;20434;-73
2023/03/29 02:35:23;;;;;;;3.10;2.90;;;;;;;3.13;57.84;99964.47;5067549;28;20442;-73
2023/03/29 02:37:55;;;;;;;2.97;2.63;;;;;;;3.10;57.21;99962.94;5051952;28;20442;-73
2023/03/29 02:40:24;;;;;;;3.60;3.33;;;;;;;3.07;56.69;99971.09;5052032;28;20497;-74
2023/03/29 02:42:55;;;;;;;2.90;2.80;;;;;;;2.97;56.50;99970.28;5051534;28;20193;-74
2023/03/29 02:45:23;;;;;;;3.43;3.13;;;;;;;2.94;55.29;99975.78;5051813;28;20470;-75
2023/03/29 02:47:55;;;;;;;3.00;2.70;;;;;;;2.88;55.63;99971.09;5067156;28;20196;-75
2023/03/29 02:50:24;;;;;;;3.33;3.13;;;;;;;2.83;55.50;99968.06;5071986;28;20433;-75
2023/03/29 02:52:55;;;;;;;2.90;2.80;;;;;;;2.79;55.00;99965.81;5071595;28;20857;-75
2023/03/29 02:55:29;;;;;;;3.10;3.00;;;;;;;2.81;54.68;99956.84;5061941;28;20525;-75
2023/03/29 02:57:56;;;;;;;4.90;4.60;;;;;;;2.78;54.49;99959.72;5051606;28;20928;-75
2023/03/29 03:00:23;;;;;;;8.20;3.97;;;;;;;2.80;54.74;99962.22;5051471;28;20963;-74
2023/03/29 03:02:50;;;;;;;3.17;2.97;;;;;;;2.84;55.15;99967.09;5051422;28;20439;-75
2023/03/29 03:05:19;;;;;;;3.33;3.13;;;;;;;2.40;55.46;99919.50;5059010;28;20465;-73
2023/03/29 03:07:46;;;;;;;4.00;3.20;;;;;;;2.70;55.70;99967.44;5069623;28;20845;-73
2023/03/29 03:10:12;;;;;;;4.93;4.17;;;;;;;2.61;55.63;99973.50;5069068;28;20893;-73
2023/03/29 03:12:39;;;;;;;3.53;3.33;;;;;;;2.61;56.16;99976.13;5071657;28;20450;-73
2023/03/29 03:15:07;;;;;;;7.17;3.93;;;;;;;2.64;55.96;99982.88;5065115;28;20447;-74
2023/03/29 03:17:38;;;;;;;3.57;3.37;;;;;;;2.58;56.79;99972.94;5051720;28;20500;-73
2023/03/29 03:20:11;;;;;;;5.17;4.70;;;;;;;2.55;56.72;99984.53;5051461;28;20423;-74
2023/03/29 03:22:40;;;;;;;4.70;4.30;;;;;;;2.48;57.04;99982.56;5050326;28;20443;-74
2023/03/29 03:25:10;;;;;;;4.90;4.60;;;;;;;2.49;57.71;99990.31;5070652;28;20434;-74
2023/03/29 03:27:37;;;;;;;4.03;3.77;;;;;;;2.56;57.30;99991.44;5071457;28;20484;-74
2023/03/29 03:30:05;;;;;;;4.63;4.23;;;;;;;2.52;57.03;99995.28;5070412;28;20429;-74
2023/03/29 03:32:33;;;;;;;4.57;4.37;;;;;;;2.57;57.27;99998.34;5071191;28;20439;-73
2023/03/29 03:35:00;;;;;;;4.47;4.17;;;;;;;2.60;57.06;100002.47;5068753;28;20453;-74
2023/03/29 03:37:28;;;;;;;4.30;4.07;;;;;;;2.59;56.40;100006.91;5071650;28;20881;-75
2023/03/29 03:39:56;;;;;;;5.37;4.87;;;;;;;2.45;57.03;99994.16;5071187;28;20495;-73
2023/03/29 03:42:23;;;;;;;4.60;4.23;;;;;;;2.58;56.17;100007.84;5066081;28;20966;-75
2023/03/29 03:44:49;;;;;;;4.50;4.20;;;;;;;2.66;55.79;100012.44;5070762;28;20798;-73
2023/03/29 03:47:16;;;;;;;5.27;3.80;;;;;;;2.64;55.62;100009.97;5071262;28;20477;-74
2023/03/29 03:49:43;;;;;;;4.37;4.07;;;;;;;2.75;56.15;100014.25;5070790;28;20503;-76
2023/03/29 03:52:10;;;;;;;4.23;4.03;;;;;;;2.78;55.16;100017.44;5070252;28;20446;-76
2023/03/29 03:54:36;;;;;;;4.40;3.80;;;;;;;2.75;55.20;100019.50;5070790;28;20441;-76
2023/03/29 03:57:05;;;;;;;4.10;3.90;;;;;;;2.83;55.23;100024.91;5068976;28;20442;-75
2023/03/29 03:59:32;;;;;;;4.00;3.43;;;;;;;2.84;54.85;100026.56;5069344;28;20438;-76
2023/03/29 04:01:59;;;;;;;3.93;3.63;;;;;;;2.89;54.37;100035.69;5070063;28;20445;-76
2023/03/29 04:04:26;;;;;;;4.50;4.20;;;;;;;2.94;53.83;100038.75;5070534;28;20446;-75
2023/03/29 04:06:53;;;;;;;4.10;3.90;;;;;;;2.98;53.94;100032.25;5073704;28;20558;-76
2023/03/29 04:09:21;;;;;;;3.90;3.70;;;;;;;2.99;54.33;100040.97;5073070;28;20438;-76
2023/03/29 04:11:48;;;;;;;4.17;3.87;;;;;;;3.02;54.29;100040.72;5054402;28;20457;-75
2023/03/29 04:14:16;;;;;;;15.00;4.73;;;;;;;3.00;54.15;100042.63;5054597;28;20505;-76
2023/03/29 04:16:43;;;;;;;4.53;4.10;;;;;;;3.02;54.35;100052.03;5054386;28;20446;-76
2023/03/29 04:19:10;;;;;;;4.70;4.30;;;;;;;2.95;54.53;100045.69;5054148;28;20879;-76
2023/03/29 04:21:37;;;;;;;4.27;4.07;;;;;;;3.03;54.61;100052.88;5054113;28;20450;-78
2023/03/29 04:24:04;;;;;;;4.17;3.83;;;;;;;3.01;54.30;100042.50;5054161;28;20513;-74
2023/03/29 04:26:31;;;;;;;4.43;4.10;;;;;;;3.10;53.97;100052.19;5069450;28;20481;-77
2023/03/29 04:28:58;;;;;;;5.77;3.83;;;;;;;2.99;55.04;100048.84;5072457;28;20503;-77
2023/03/29 04:31:26;;;;;;;4.47;4.27;;;;;;;3.11;54.24;100051.22;5074296;28;20506;-76
2023/03/29 04:33:53;;;;;;;4.90;4.47;;;;;;;3.41;53.51;100059.00;5074108;28;20599;-74
2023/03/29 04:36:20;;;;;;;9.23;4.67;;;;;;;3.69;53.47;100058.19;5073705;28;20503;-75
2023/03/29 04:38:47;;;;;;;4.30;3.93;;;;;;;4.04;51.64;100058.41;5070839;28;20446;-73
2023/03/29 04:41:14;;;;;;;4.60;4.23;;;;;;;4.28;50.98;100056.16;5056150;28;20239;-74
2023/03/29 04:43:45;;;;;;;14.23;7.47;;;;;;;4.48;49.70;100046.41;5053666;28;20447;-72
2023/03/29 04:46:12;;;;;;;3.90;3.60;;;;;;;4.78;48.33;100068.00;5053592;28;21018;-75
2023/03/29 04:48:40;;;;;;;6.57;4.07;;;;;;;5.12;47.75;100071.75;5067527;28;20200;-73
2023/03/29 04:51:07;;;;;;;5.10;4.27;;;;;;;5.32;46.80;100069.81;5073873;28;20196;-73
2023/03/29 04:53:35;;;;;;;6.83;4.87;;;;;;;5.41;46.62;100080.28;5072972;28;20192;-73
2023/03/29 04:56:02;;;;;;;12.07;5.63;;;;;;;6.03;67.02;100062.72;5073749;28;20397;-66
2023/03/29 04:58:29;;;;;;;6.80;4.17;;;;;;;6.62;44.51;100091.84;5065129;28;20204;-72
2023/03/29 05:00:57;;;;;;;10.83;4.33;;;;;;;6.76;43.48;100092.09;5071509;28;20188;-71
2023/03/29 05:03:24;;;;;;;4.33;4.13;;;;;;;7.12;41.74;100092.75;5072275;28;20199;-71
2023/03/29 05:05:52;;;;;;;10.57;4.57;;;;;;;6.99;42.34;100090.56;5071619;28;20220;-72
2023/03/29 05:08:19;;;;;;;4.43;4.20;;;;;;;7.19;41.68;100099.03;5072823;28;20203;-74
2023/03/29 05:10:46;;;;;;;3.90;3.70;;;;;;;7.25;40.74;100098.41;5054202;28;20188;-73
2023/03/29 05:13:13;;;;;;;3.67;3.40;;;;;;;7.30;41.89;100098.72;5072888;28;20200;-73
2023/03/29 05:15:41;;;;;;;7.17;5.00;;;;;;;7.24;41.81;100096.75;5071362;28;20197;-72
2023/03/29 05:18:08;;;;;;;6.50;3.27;;;;;;;7.12;42.54;100098.03;5068983;28;20204;-73
2023/03/29 05:20:36;;;;;;;4.90;4.60;;;;;;;7.19;42.90;100093.75;5070792;28;20200;-71
2023/03/29 05:23:04;;;;;;;59.63;8.43;;;;;;;7.14;43.69;100094.22;5071142;28;20677;-72
2023/03/29 05:25:32;;;;;;;4.73;4.43;;;;;;;7.49;41.39;100090.53;5063062;28;20245;-75
2023/03/29 05:27:59;;;;;;;8.37;4.23;;;;;;;7.57;44.00;100099.31;5071370;28;20229;-65
2023/03/29 05:30:25;;;;;;;10.80;4.13;;;;;;;8.24;44.89;100095.59;5073000;28;20344;-65
2023/03/29 05:32:52;;;;;;;13.27;3.70;;;;;;;8.91;50.14;100093.31;5070901;28;20199;-68
2023/03/29 05:35:19;;;;;;;4.27;3.77;;;;;;;8.61;40.30;100101.16;5058611;28;20227;-66
2023/03/29 05:37:46;;;;;;;3.37;3.17;;;;;;;8.91;39.49;100101.25;5071417;28;20196;-67
2023/03/29 05:40:15;;;;;;;4.33;3.30;;;;;;;8.90;38.79;100096.16;5071898;28;20196;-68
2023/03/29 05:42:42;;;;;;;6.30;3.30;;;;;;;9.71;39.44;100102.69;5071298;28;20630;-66
2023/03/29 05:45:10;;;;;;;3.73;2.83;;;;;;;10.51;36.65;100110.88;5068327;28;20202;-67
2023/03/29 05:47:37;;;;;;;5.33;2.90;;;;;;;10.78;41.97;100104.13;5071876;28;20288;-66
2023/03/29 05:50:04;;;;;;;3.03;2.83;;;;;;;11.83;33.72;100122.28;5071457;28;20625;-66
2023/03/29 05:52:31;;;;;;;7.70;3.30;;;;;;;11.59;32.89;100120.75;5062731;28;20254;-67
2023/03/29 05:54:57;;;;;;;6.10;2.90;;;;;;;11.09;35.75;100096.81;5085181;28;20903;-66
2023/03/29 05:57:26;;;;;;;4.37;3.00;;;;;;;11.87;33.43;100115.56;5091656;28;20204;-66
2023/03/29 05:59:53;;;;;;;3.10;2.63;;;;;;;11.96;36.10;100109.94;5071803;28;20197;-65
2023/03/29 06:02:20;;;;;;;6.57;2.90;;;;;;;11.28;32.85;100114.03;5071674;28;20228;-67
2023/03/29 06:04:47;;;;;;;18.00;4.27;;;;;;;10.69;33.84;100110.53;5071180;28;20193;-71
2023/03/29 06:07:13;;;;;;;5.27;4.80;;;;;;;11.23;32.79;100125.19;5070432;28;20748;-74
2023/03/29 06:09:40;;;;;;;5.43;5.03;;;;;;;11.00;32.84;100097.91;5071242;28;20644;-72
2023/03/29 06:12:08;;;;;;;6.03;3.20;;;;;;;10.11;32.78;100102.44;5071665;28;20257;-74
2023/03/29 06:14:36;;;;;;;12.03;3.20;;;;;;;10.04;34.61;100109.41;5072625;28;20191;-69
2023/03/29 06:17:03;;;;;;;75.87;7.23;;;;;;;10.11;34.09;100118.38;5071964;28;20291;-70
2023/03/29 06:19:30;;;;;;;9.63;2.70;;;;;;;11.16;34.33;100118.16;5071360;28;20191;-69
2023/03/29 06:21:57;;;;;;;9.07;2.67;;;;;;;12.39;32.42;100130.22;5071229;28;20192;-68
2023/03/29 06:24:24;;;;;;;8.97;2.70;;;;;;;12.54;31.47;100122.94;5071602;28;20263;-67
2023/03/29 06:26:51;;;;;;;6.70;3.03;;;;;;;12.00;29.70;100140.47;5070596;28;20596;-68
2023/03/29 06:29:18;;;;;;;4.17;3.10;;;;;;;11.20;30.90;100127.41;5069790;28;20637;-69
2023/03/29 06:31:46;;;;;;;3.30;2.90;;;;;;;11.20;30.49;100141.56;5069311;28;20261;-65
2023/03/29 06:34:13;;;;;;;21.23;3.70;;;;;;;10.72;36.56;100142.91;5053995;28;20197;-68
2023/03/29 06:36:39;;;;;;;7.57;3.07;;;;;;;11.83;30.17;100144.41;5072381;28;20261;-66
2023/03/29 06:39:06;;;;;;;4.33;2.90;;;;;;;12.56;31.67;100142.25;5070806;28;20204;-67
2023/03/29 06:41:33;;;;;;;5.60;2.35;;;;;;;12.04;32.24;100147.09;5088503;28;20448;-70
2023/03/29 06:44:00;;;;;;;11.43;2.73;;;;;;;11.61;28.90;100152.53;5091144;28;20193;-71
2023/03/29 06:46:26;;;;;;;5.30;2.20;;;;;;;11.28;29.47;100159.22;5086699;28;20220;-68
2023/03/29 06:48:54;;;;;;;2.33;2.07;;;;;;;10.97;29.08;100156.75;5070227;28;20193;-68
2023/03/29 06:51:21;;;;;;;6.93;2.13;;;;;;;10.41;29.50;100149.31;5070798;28;20269;-69
2023/03/29 06:53:48;;;;;;;3.10;1.90;;;;;;;11.00;30.45;100167.03;5069582;28;20596;-65
2023/03/29 06:56:15;;;;;;;7.37;2.40;;;;;;;10.47;29.46;100153.91;5070994;28;20200;-67
2023/03/29 06:58:41;;;;;;;4.70;2.63;;;;;;;10.52;30.28;100151.53;5070275;28;20664;-66
2023/03/29 07:01:08;;;;;;;2.60;2.10;;;;;;;10.58;29.33;100161.47;5070585;28;20277;-67
2023/03/29 07:03:35;;;;;;;22.00;3.73;;;;;;;11.73;33.05;100164.34;5071115;28;20234;-66
2023/03/29 07:06:08;;;;;;;8.43;2.60;;;;;;;12.06;29.00;100169.03;5069556;28;20310;-67
2023/03/29 07:08:41;;;;;;;13.07;2.37;;;;;;;11.75;27.98;100164.97;5070076;28;20209;-67
2023/03/29 07:11:09;;;;;;;5.50;2.17;;;;;;;11.17;28.58;100184.44;5070077;28;20186;-68
2023/03/29 07:13:36;;;;;;;10.87;2.53;;;;;;;11.54;28.80;100165.72;5070394;28;20200;-67
2023/03/29 07:16:02;;;;;;;1.90;1.80;;;;;;;11.55;28.87;100172.69;5070477;28;20288;-67
2023/03/29 07:18:29;;;;;;;11.57;2.70;;;;;;;11.81;27.99;100165.06;5070305;28;20670;-68
2023/03/29 07:20:56;;;;;;;7.50;1.80;;;;;;;11.55;27.27;100169.22;5070126;28;20277;-72
2023/03/29 07:23:24;;;;;;;2.63;1.93;;;;;;;11.27;27.77;100179.66;5070434;28;20303;-73
2023/03/29 07:25:51;;;;;;;2.40;1.70;;;;;;;11.04;27.94;100178.94;5070073;28;20196;-73
2023/03/29 07:28:17;;;;;;;2.93;2.30;;;;;;;11.39;27.85;100172.88;5070276;28;20312;-71
2023/03/29 07:30:44;;;;;;;6.27;2.40;;;;;;;11.83;27.27;100172.84;5069889;28;20227;-73
2023/03/29 07:33:11;;;;;;;14.97;2.67;;;;;;;11.78;34.16;100153.94;5067279;28;20200;-70
2023/03/29 07:35:38;;;;;;;9.50;1.97;;;;;;;11.95;27.59;100174.84;5050071;28;20206;-68
2023/03/29 07:38:07;;;;;;;8.87;1.77;;;;;;;12.10;32.61;100169.47;5050077;28;20633;-72
2023/03/29 07:40:35;;;;;;;10.83;2.23;;;;;;;12.05;27.36;100158.56;5051231;28;20574;-69
2023/03/29 07:43:07;;;;;;;6.03;1.93;;;;;;;11.61;25.37;100166.69;5072357;28;20197;-68
2023/03/29 07:45:35;;;;;;;3.60;1.90;;;;;;;11.92;25.92;100169.09;5067993;28;20201;-68
2023/03/29 07:48:02;;;;;;;4.67;1.40;;;;;;;11.75;25.16;100163.13;5074081;28;20301;-68
2023/03/29 07:50:31;;;;;;;19.92;2.60;;;;;;;12.44;24.44;100159.78;5072553;28;20985;-73
2023/03/29 07:52:59;;;;;;;3.90;2.30;;;;;;;12.17;24.27;100141.88;5073731;28;20193;-72
2023/03/29 07:55:26;;;;;;;4.10;3.70;;;;;;;11.73;24.91;100159.84;5063646;28;20264;-69
2023/03/29 07:57:55;;;;;;;23.63;3.57;;;;;;;11.99;24.07;100160.16;5053690;28;20288;-70
2023/03/29 08:00:23;;;;;;;6.50;1.70;;;;;;;12.18;24.12;100166.69;5052390;28;20264;-72
2023/03/29 08:02:52;;;;;;;2.87;2.70;;;;;;;11.77;24.33;100160.31;5072896;28;20190;-71
2023/03/29 08:05:20;;;;;;;9.00;2.40;;;;;;;11.56;24.60;100158.38;5073120;28;20291;-73
2023/03/29 08:07:47;;;;;;;2.33;2.10;;;;;;;11.37;24.61;100150.13;5072653;28;20308;-70
2023/03/29 08:10:16;;;;;;;19.17;2.93;;;;;;;10.99;25.39;100154.75;5072737;28;20682;-72
2023/03/29 08:12:44;;;;;;;7.80;2.50;;;;;;;11.39;25.71;100146.28;5072293;28;20665;-71
2023/03/29 08:15:13;;;;;;;1.40;1.30;;;;;;;11.94;26.73;100154.56;5072195;28;20927;-70
2023/03/29 08:17:41;;;;;;;10.00;1.77;;;;;;;12.48;26.31;100147.72;5068158;28;20267;-68
2023/03/29 08:20:10;;;;;;;18.27;2.30;;;;;;;12.50;24.96;100166.97;5072249;28;20575;-66
2023/03/29 08:22:37;;;;;;;9.30;2.33;;;;;;;12.63;24.34;100156.47;5071798;28;20456;-72
2023/03/29 08:25:05;;;;;;;9.87;1.90;;;;;;;12.79;24.28;100150.84;5070634;28;20190;-73
2023/03/29 08:27:32;;;;;;;4.40;2.27;;;;;;;12.97;23.84;100151.19;5072298;28;20234;-73
2023/03/29 08:29:59;;;;;;;4.73;1.73;;;;;;;12.72;23.83;100131.31;5063894;28;20195;-72
2023/03/29 08:32:27;;;;;;;4.10;1.97;;;;;;;12.02;24.16;100151.78;5072553;28;20265;-71
2023/03/29 08:34:54;;;;;;;5.40;1.93;;;;;;;11.99;24.53;100149.50;5073112;28;20655;-71
2023/03/29 08:37:23;;;;;;;11.90;2.03;;;;;;;11.96;24.78;100155.19;5073463;28;20198;-72
2023/03/29 08:39:50;;;;;;;2.57;1.53;;;;;;;12.39;24.02;100148.88;5066706;28;20197;-71
2023/03/29 08:42:34;;;;;;;8.13;1.97;;;;;;;12.60;24.16;100153.34;5054792;28;20268;-72
2023/03/29 08:45:08;;;;;;;24.17;3.20;;;;;;;11.97;24.63;100137.38;5064074;28;20252;-71
2023/03/29 08:47:44;;;;;;;3.77;1.77;;;;;;;11.74;25.32;100142.03;5073016;28;20210;-72
2023/03/29 08:50:12;;;;;;;2.30;1.70;;;;;;;11.88;25.19;100147.31;5072192;28;20205;-72
2023/03/29 08:52:43;;;;;;;3.17;2.27;;;;;;;11.36;24.91;100140.53;5071967;28;20254;-73
2023/03/29 08:55:18;;;;;;;3.50;1.93;;;;;;;11.23;25.73;100146.47;5073653;28;20186;-70
2023/03/29 08:57:48;;;;;;;10.23;2.57;;;;;;;11.38;25.49;100141.97;5063567;28;20247;-78
2023/03/29 09:00:21;;;;;;;4.50;2.77;;;;;;;12.18;25.58;100135.56;5053568;28;20363;-75
2023/03/29 09:02:53;;;;;;;8.77;2.60;;;;;;;12.47;25.18;100138.06;5053201;28;20202;-73
2023/03/29 09:05:26;;;;;;;4.03;1.77;;;;;;;12.02;25.56;100122.50;5053590;28;20228;-73
2023/03/29 09:07:54;;;;;;;2.27;1.80;;;;;;;12.01;25.08;100123.50;5056591;28;20230;-73
2023/03/29 09:10:28;;;;;;;4.77;1.80;;;;;;;11.44;25.67;100143.91;5067934;28;20191;-74
2023/03/29 09:13:08;;;;;;;2.80;1.50;;;;;;;11.35;25.95;100131.72;5054731;28;20190;-73
2023/03/29 09:15:44;;;;;;;1.80;1.70;;;;;;;11.50;25.39;100137.84;5053412;28;20186;-75
2023/03/29 09:18:24;;;;;;;1.77;1.70;;;;;;;11.44;24.74;100138.59;5052676;28;20682;-72
2023/03/29 09:20:56;;;;;;;2.50;1.90;;;;;;;11.92;24.49;100121.97;5052802;28;20244;-72
2023/03/29 09:24:02;;;;;;;1.70;1.27;;;;;;;12.24;23.51;100136.63;5053238;28;20682;-77
2023/03/29 09:26:37;;;;;;;1.87;1.60;;;;;;;12.50;23.37;100129.69;5068057;28;20649;-70
2023/03/29 09:29:22;;;;;;;2.43;1.80;;;;;;;11.79;24.20;100127.16;5072640;28;20220;-71
2023/03/29 09:31:50;;;;;;;9.93;2.60;;;;;;;11.47;24.42;100143.53;5071723;28;20205;-72
2023/03/29 09:34:22;;;;;;;3.83;1.77;;;;;;;11.64;24.00;100134.34;5067397;28;20211;-72
2023/03/29 09:36:54;;;;;;;2.63;2.43;;;;;;;11.62;24.06;100135.53;5065461;28;20261;-71
2023/03/29 09:39:22;;;;;;;2.60;2.30;;;;;;;11.59;23.97;100128.72;5067268;28;20206;-72
2023/03/29 09:41:52;;;;;;;2.93;2.73;;;;;;;11.76;24.23;100135.50;5068031;28;20202;-72
2023/03/29 09:44:22;;;;;;;2.37;2.00;;;;;;;11.93;24.71;100115.66;5068563;28;20209;-74
2023/03/29 09:46:54;;;;;;;2.00;1.90;;;;;;;11.47;24.66;100127.56;5068568;28;20209;-72
2023/03/29 09:49:28;;;;;;;3.20;2.00;;;;;;;11.32;25.50;100134.75;5061519;28;20264;-70
2023/03/29 09:52:01;;;;;;;5.57;3.03;;;;;;;11.44;24.79;100112.00;5068595;28;20250;-73
2023/03/29 09:54:28;;;;;;;3.07;2.13;;;;;;;11.23;25.25;100125.19;5068700;28;20546;-74
2023/03/29 09:56:54;;;;;;;8.03;2.10;;;;;;;11.42;24.74;100111.34;5068862;28;20196;-72
2023/03/29 09:59:21;;;;;;;2.80;1.90;;;;;;;11.44;24.07;100127.97;5068440;28;20628;-74
2023/03/29 10:01:48;;;;;;;10.73;2.30;;;;;;;11.31;24.43;100113.66;5067583;28;20209;-73
2023/03/29 10:04:15;;;;;;;2.97;1.93;;;;;;;11.23;24.58;100119.06;5066798;28;20632;-74
2023/03/29 10:06:48;;;;;;;3.53;2.10;;;;;;;10.99;24.51;100113.03;5068470;28;20213;-73
2023/03/29 10:09:17;;;;;;;2.00;1.80;;;;;;;11.56;24.71;100110.47;5067588;28;20641;-72
2023/03/29 10:11:48;;;;;;;3.77;1.80;;;;;;;11.97;24.14;100089.47;5067314;28;20189;-73
2023/03/29 10:14:18;;;;;;;5.93;1.87;;;;;;;12.01;23.93;100088.88;5068105;28;20594;-73
2023/03/29 10:16:46;;;;;;;157.17;11.63;;;;;;;11.49;23.58;100114.91;5067256;28;20197;-74
2023/03/29 10:19:21;;;;;;;2.70;2.00;;;;;;;11.53;24.27;100100.22;5067175;28;20208;-74
2023/03/29 10:21:51;;;;;;;2.03;1.47;;;;;;;11.80;23.47;100099.53;5061332;28;20299;-71
2023/03/29 10:24:20;;;;;;;1.73;1.60;;;;;;;11.84;23.46;100084.81;5068383;28;20231;-71
2023/03/29 10:26:54;;;;;;;3.63;2.00;;;;;;;12.22;23.46;100078.22;5067824;28;20228;-71
2023/03/29 10:29:21;;;;;;;4.97;2.53;;;;;;;12.31;23.17;100071.75;5067512;28;20234;-71
2023/03/29 10:31:48;;;;;;;17.50;3.10;;;;;;;12.33;23.29;100087.53;5066905;28;20195;-76
2023/03/29 10:34:17;;;;;;;33.27;3.00;;;;;;;12.04;23.17;100088.50;5067664;28;20195;-76
2023/03/29 10:36:47;;;;;;;1.83;1.70;;;;;;;11.84;23.38;100070.72;5067825;28;20870;-71
2023/03/29 10:39:16;;;;;;;4.30;1.80;;;;;;;11.87;23.45;100043.69;5067488;28;20285;-72
2023/03/29 10:41:44;;;;;;;3.03;2.13;;;;;;;12.36;23.69;100061.31;5068117;28;20298;-74
2023/03/29 10:44:27;;;;;;;2.60;2.37;;;;;;;12.45;23.50;100044.19;5066821;28;20279;-72
2023/03/29 10:46:54;;;;;;;10.40;2.33;;;;;;;11.95;23.47;100057.69;5065727;28;20654;-73
2023/03/29 10:49:24;;;;;;;2.70;1.90;;;;;;;11.98;23.83;100052.00;5066940;28;20226;-73
2023/03/29 10:51:53;;;;;;;5.90;1.70;;;;;;;12.43;23.50;100003.59;5060350;28;20206;-75
2023/03/29 10:54:24;;;;;;;12.30;2.33;;;;;;;12.47;23.30;100023.50;5067001;28;20221;-75
2023/03/29 10:56:55;;;;;;;6.00;1.80;;;;;;;12.80;23.12;100013.84;5067845;28;20737;-75
2023/03/29 10:59:30;;;;;;;5.10;2.47;;;;;;;12.83;22.53;100016.09;5066868;28;20210;-74
2023/03/29 11:02:39;;;;;;;1.90;1.80;;;;;;;13.16;22.34;100003.78;5066463;28;20199;-73
2023/03/29 11:05:18;;;;;;;3.53;2.00;;;;;;;13.49;22.41;100028.72;5031842;28;20201;-73
2023/03/29 11:08:00;;;;;;;8.23;2.03;;;;;;;13.37;22.21;100010.81;5066661;28;20231;-74
2023/03/29 11:10:41;;;;;;;1.53;1.43;;;;;;;13.12;21.73;100004.38;5067423;28;20252;-75
2023/03/29 11:13:17;;;;;;;3.00;1.87;;;;;;;12.61;22.07;99990.56;5067021;28;20244;-70
2023/03/29 11:15:58;;;;;;;1.60;1.50;;;;;;;12.88;22.16;99992.38;5069264;28;20201;-72
2023/03/29 11:18:41;;;;;;;4.97;1.70;;;;;;;12.92;21.82;99977.59;5071332;28;20321;-73
2023/03/29 11:21:17;;;;;;;84.47;7.43;;;;;;;12.54;21.44;99988.91;5071391;28;20199;-74
2023/03/29 11:23:55;;;;;;;5.47;1.83;;;;;;;12.10;21.71;100001.72;5070652;28;20581;-72
2023/03/29 11:26:26;;;;;;;1.77;1.60;;;;;;;12.58;22.50;99982.16;5071239;28;20234;-74
2023/03/29 11:28:57;;;;;;;1.40;1.40;;;;;;;12.88;21.76;99984.34;5064228;28;20216;-73
2023/03/29 11:31:35;;;;;;;10.40;2.30;;;;;;;13.05;21.42;99967.03;5071207;28;20197;-72
2023/03/29 11:34:16;;;;;;;17.73;3.20;;;;;;;12.33;21.82;99965.81;5071275;28;20203;-73
2023/03/29 11:36:52;;;;;;;2.63;1.80;;;;;;;12.57;22.54;99975.19;5070091;28;20621;-76
2023/03/29 11:39:30;;;;;;;1.77;1.60;;;;;;;12.78;21.60;99965.22;5063594;28;20252;-74
2023/03/29 11:42:06;;;;;;;3.83;1.57;;;;;;;13.09;21.84;99957.59;5071298;28;20202;-75
2023/03/29 11:44:35;;;;;;;3.80;1.90;;;;;;;13.03;21.40;99974.38;5071375;28;20198;-74